Time;durP1;ratioP1;P1;durP2;ratioP2;P2;SDS_P1;SDS_P2;PMS_P1;PMS_P2;Temp;Humidity;BMP_temperature;BMP_pressure;BME280_temperature;BME280_humidity;BME280_pressure;Samples;Min_cycle;Max_cycle;Signal;HPM_P1;HPM_P2
2022/02/15 00:00:27;;;;;;;11.27;5.28;;;;;;;;;;5044561;28;20025;-71
2022/02/15 00:02:52;;;;;;;10.00;4.90;;;;;;;;;;5044054;28;20044;-71
2022/02/15 00:05:18;;;;;;;7.28;4.07;;;;;;;;;;5043063;28;20037;-71
2022/02/15 00:07:44;;;;;;;10.70;5.55;;;;;;;;;;5044238;28;20041;-70
2022/02/15 00:10:10;;;;;;;5.60;3.40;;;;;;;;;;5026797;28;20053;-71
2022/02/15 00:12:37;;;;;;;10.95;5.32;;;;;;;;;;5044255;28;20021;-71
2022/02/15 00:15:03;;;;;;;8.15;4.63;;;;;;;;;;5026225;28;20036;-71
2022/02/15 00:17:29;;;;;;;10.75;5.93;;;;;;;;;;5044584;28;20033;-70
2022/02/15 00:19:55;;;;;;;11.38;5.47;;;;;;;;;;5044142;28;20049;-70
2022/02/15 00:22:23;;;;;;;12.30;5.53;;;;;;;;;;5044304;28;20049;-70
2022/02/15 00:24:49;;;;;;;13.68;5.55;;;;;;;;;;5044228;28;20030;-70
2022/02/15 00:27:14;;;;;;;12.32;4.72;;;;;;;;;;5044207;28;20556;-71
2022/02/15 00:29:40;;;;;;;16.05;6.65;;;;;;;;;;5043812;28;20113;-70
2022/02/15 00:32:05;;;;;;;14.10;5.55;;;;;;;;;;5026303;28;20068;-70
2022/02/15 00:34:34;;;;;;;9.32;4.43;;;;;;;;;;5044003;28;20026;-70
2022/02/15 00:37:01;;;;;;;11.27;5.80;;;;;;;;;;5043984;28;20089;-70
2022/02/15 00:39:27;;;;;;;42.08;21.95;;;;;;;;;;5043755;28;20065;-70
2022/02/15 00:41:53;;;;;;;15.90;9.18;;;;;;;;;;5043850;28;20033;-71
2022/02/15 00:44:18;;;;;;;20.55;9.10;;;;;;;;;;5043371;28;20092;-70
2022/02/15 00:46:45;;;;;;;19.00;9.75;;;;;;;;;;5043923;28;20029;-70
2022/02/15 00:49:10;;;;;;;27.23;15.23;;;;;;;;;;5059217;28;20127;-70
2022/02/15 00:51:39;;;;;;;8.27;3.67;;;;;;;;;;5044309;28;20037;-70
2022/02/15 00:54:04;;;;;;;18.00;5.43;;;;;;;;;;5043718;28;20037;-70
2022/02/15 00:56:30;;;;;;;11.35;4.10;;;;;;;;;;5043971;28;20368;-70
2022/02/15 00:58:56;;;;;;;12.70;6.57;;;;;;;;;;5043231;28;20033;-71
2022/02/15 01:01:21;;;;;;;14.05;7.63;;;;;;;;;;5025840;28;20030;-70
2022/02/15 01:03:50;;;;;;;11.48;6.30;;;;;;;;;;5043758;28;20029;-70
2022/02/15 01:06:15;;;;;;;17.25;10.82;;;;;;;;;;5043506;28;20089;-70
2022/02/15 01:08:45;;;;;;;13.43;8.27;;;;;;;;;;5043334;28;20022;-70
2022/02/15 01:11:11;;;;;;;17.67;9.77;;;;;;;;;;5043692;28;20083;-70
2022/02/15 01:13:37;;;;;;;13.20;8.45;;;;;;;;;;5043489;28;20390;-70
2022/02/15 01:16:06;;;;;;;14.15;10.10;;;;;;;;;;5043959;28;20092;-71
2022/02/15 01:18:35;;;;;;;11.10;6.85;;;;;;;;;;5025418;28;20149;-70
2022/02/15 01:21:03;;;;;;;21.20;9.65;;;;;;;;;;5025609;28;20048;-71
2022/02/15 01:23:29;;;;;;;14.93;6.95;;;;;;;;;;5043313;28;20064;-70
2022/02/15 01:25:55;;;;;;;16.02;7.95;;;;;;;;;;5025601;28;20473;-70
2022/02/15 01:28:20;;;;;;;13.13;5.97;;;;;;;;;;5043338;28;20247;-70
2022/02/15 01:30:49;;;;;;;14.32;6.45;;;;;;;;;;5043361;28;20446;-70
2022/02/15 01:33:14;;;;;;;14.50;5.72;;;;;;;;;;5043069;28;20044;-71
2022/02/15 01:35:40;;;;;;;12.45;6.40;;;;;;;;;;5043101;28;20029;-70
2022/02/15 01:38:08;;;;;;;14.57;6.32;;;;;;;;;;5043132;28;20029;-71
2022/02/15 01:40:33;;;;;;;13.38;7.13;;;;;;;;;;5043116;28;20093;-71
2022/02/15 01:42:59;;;;;;;12.48;5.80;;;;;;;;;;5043020;28;20040;-70
2022/02/15 01:45:27;;;;;;;11.77;5.68;;;;;;;;;;5042717;28;20108;-70
2022/02/15 01:47:53;;;;;;;14.32;6.35;;;;;;;;;;5042998;28;20037;-70
2022/02/15 01:50:19;;;;;;;11.88;6.45;;;;;;;;;;5042961;28;20044;-71
2022/02/15 01:52:44;;;;;;;12.90;7.10;;;;;;;;;;5058223;28;20072;-70
2022/02/15 01:55:16;;;;;;;13.13;7.70;;;;;;;;;;5043509;28;20044;-70
2022/02/15 01:57:42;;;;;;;16.85;10.13;;;;;;;;;;5029134;28;20098;-70
2022/02/15 02:00:14;;;;;;;15.73;7.55;;;;;;;;;;5046755;28;20034;-70
2022/02/15 02:02:40;;;;;;;17.42;6.72;;;;;;;;;;5028884;28;20025;-70
2022/02/15 02:07:51;;;;;;;42.83;22.42;;;;;;;;;;5047163;28;20121;-70
2022/02/15 02:10:16;;;;;;;17.25;9.95;;;;;;;;;;5028797;28;20033;-70
2022/02/15 02:12:42;;;;;;;12.73;6.45;;;;;;;;;;5046694;28;20045;-71
2022/02/15 02:15:29;;;;;;;16.20;6.70;;;;;;;;;;5046928;28;20104;-70
2022/02/15 02:17:58;;;;;;;25.25;12.95;;;;;;;;;;5045805;28;20041;-70
2022/02/15 02:20:23;;;;;;;22.02;15.13;;;;;;;;;;5046500;28;20036;-70
2022/02/15 02:22:52;;;;;;;15.48;7.57;;;;;;;;;;5046714;28;20029;-71
2022/02/15 02:25:19;;;;;;;11.27;5.60;;;;;;;;;;5046382;28;20085;-70
2022/02/15 02:27:45;;;;;;;18.48;8.45;;;;;;;;;;5046513;28;20041;-70
2022/02/15 02:30:12;;;;;;;13.85;6.72;;;;;;;;;;5028258;28;20029;-70
2022/02/15 02:32:37;;;;;;;12.68;6.78;;;;;;;;;;5046188;28;20041;-70
2022/02/15 02:35:05;;;;;;;14.02;6.28;;;;;;;;;;5045954;28;20582;-70
2022/02/15 02:37:34;;;;;;;14.43;7.45;;;;;;;;;;5028203;28;20029;-70
2022/02/15 02:40:05;;;;;;;12.70;7.32;;;;;;;;;;5027756;28;20140;-70
2022/02/15 02:42:31;;;;;;;12.95;6.30;;;;;;;;;;5046778;28;20026;-70
2022/02/15 02:45:04;;;;;;;11.90;4.88;;;;;;;;;;5061099;28;20140;-70
2022/02/15 02:47:29;;;;;;;17.42;6.93;;;;;;;;;;5028363;28;20036;-70
2022/02/15 02:49:55;;;;;;;12.68;6.60;;;;;;;;;;5045843;28;20045;-70
2022/02/15 02:52:22;;;;;;;12.73;5.95;;;;;;;;;;5045881;28;20069;-70
2022/02/15 02:54:51;;;;;;;13.30;6.03;;;;;;;;;;5045766;28;20064;-71
2022/02/15 02:57:17;;;;;;;16.48;6.40;;;;;;;;;;5046002;28;20056;-70
2022/02/15 02:59:47;;;;;;;12.50;6.72;;;;;;;;;;5045419;28;20021;-70
2022/02/15 03:02:14;;;;;;;17.60;7.00;;;;;;;;;;5045488;28;20026;-70
2022/02/15 03:04:43;;;;;;;17.90;6.97;;;;;;;;;;5027857;28;20033;-71
2022/02/15 03:07:10;;;;;;;18.25;7.40;;;;;;;;;;5045810;28;20026;-70
2022/02/15 03:09:36;;;;;;;16.30;7.20;;;;;;;;;;5045798;28;20121;-70
2022/02/15 03:12:02;;;;;;;13.38;7.35;;;;;;;;;;5046067;28;20036;-70
2022/02/15 03:14:27;;;;;;;14.02;7.40;;;;;;;;;;5045155;28;20052;-70
2022/02/15 03:16:56;;;;;;;11.65;7.50;;;;;;;;;;5045440;28;20026;-70
2022/02/15 03:19:21;;;;;;;17.08;8.10;;;;;;;;;;5045435;28;20386;-70
2022/02/15 03:21:47;;;;;;;12.07;6.57;;;;;;;;;;5027640;28;20101;-70
2022/02/15 03:24:15;;;;;;;13.80;6.85;;;;;;;;;;5027266;28;20029;-70
2022/02/15 03:26:43;;;;;;;12.73;7.03;;;;;;;;;;5027067;28;20033;-70
2022/02/15 03:29:10;;;;;;;11.82;6.45;;;;;;;;;;5045170;28;20109;-70
2022/02/15 03:31:40;;;;;;;13.63;6.60;;;;;;;;;;5027637;28;20392;-70
2022/02/15 03:34:06;;;;;;;13.77;7.05;;;;;;;;;;5045168;28;20250;-70
2022/02/15 03:36:32;;;;;;;13.98;6.72;;;;;;;;;;5044870;28;20037;-70
2022/02/15 03:38:58;;;;;;;14.02;6.68;;;;;;;;;;5045060;28;20068;-70
2022/02/15 03:44:08;;;;;;;15.77;7.47;;;;;;;;;;5044781;28;20036;-70
2022/02/15 03:46:37;;;;;;;13.35;7.53;;;;;;;;;;5045223;28;20270;-70
2022/02/15 03:49:02;;;;;;;12.48;6.47;;;;;;;;;;5027283;28;20656;-70
2022/02/15 03:51:28;;;;;;;11.27;7.00;;;;;;;;;;5044809;28;20057;-70
2022/02/15 03:53:58;;;;;;;14.55;6.90;;;;;;;;;;5044487;28;20029;-70
2022/02/15 03:56:24;;;;;;;11.48;7.00;;;;;;;;;;5045095;28;20056;-71
2022/02/15 03:58:49;;;;;;;13.55;7.38;;;;;;;;;;5044922;28;20044;-70
2022/02/15 04:01:15;;;;;;;14.13;7.78;;;;;;;;;;5044642;28;20030;-70
2022/02/15 04:03:40;;;;;;;13.95;7.10;;;;;;;;;;5044771;28;20029;-70
2022/02/15 04:06:06;;;;;;;12.88;7.00;;;;;;;;;;5044389;28;20037;-70
2022/02/15 04:08:31;;;;;;;17.00;7.57;;;;;;;;;;5044436;28;20120;-70
2022/02/15 04:10:57;;;;;;;14.90;7.10;;;;;;;;;;5026605;28;20037;-70
2022/02/15 04:13:22;;;;;;;12.82;7.28;;;;;;;;;;5044373;28;20112;-70
2022/02/15 04:15:48;;;;;;;13.00;7.13;;;;;;;;;;5044388;28;20084;-70
2022/02/15 04:18:13;;;;;;;14.10;7.05;;;;;;;;;;5059319;28;20060;-70
2022/02/15 04:20:39;;;;;;;12.88;7.07;;;;;;;;;;5044266;28;20032;-70
2022/02/15 04:23:07;;;;;;;16.83;7.95;;;;;;;;;;5044217;28;20060;-70
2022/02/15 04:25:33;;;;;;;17.13;8.15;;;;;;;;;;5043785;28;20034;-70
2022/02/15 04:28:01;;;;;;;20.98;8.38;;;;;;;;;;5043959;28;20051;-70
2022/02/15 04:30:27;;;;;;;17.58;7.72;;;;;;;;;;5043922;28;20242;-70
2022/02/15 04:32:52;;;;;;;17.33;7.80;;;;;;;;;;5043992;28;20137;-70
2022/02/15 04:35:18;;;;;;;14.73;7.40;;;;;;;;;;5043386;28;20029;-70
2022/02/15 04:37:48;;;;;;;18.45;8.82;;;;;;;;;;5043921;28;20029;-70
2022/02/15 04:40:13;;;;;;;15.85;8.07;;;;;;;;;;5043749;28;20406;-70
2022/02/15 04:42:41;;;;;;;16.00;8.15;;;;;;;;;;5043512;28;20063;-70
2022/02/15 04:45:07;;;;;;;17.50;7.47;;;;;;;;;;5044023;28;20040;-70
2022/02/15 04:47:33;;;;;;;13.27;7.40;;;;;;;;;;5026173;28;20033;-70
2022/02/15 04:50:01;;;;;;;15.30;7.38;;;;;;;;;;5043403;28;20041;-70
2022/02/15 04:52:26;;;;;;;13.35;7.70;;;;;;;;;;5026118;28;20064;-71
2022/02/15 04:54:54;;;;;;;15.02;7.90;;;;;;;;;;5043610;28;20048;-70
2022/02/15 04:57:19;;;;;;;15.07;6.82;;;;;;;;;;5025971;28;20029;-71
2022/02/15 04:59:45;;;;;;;12.70;7.13;;;;;;;;;;5025655;28;20033;-70
2022/02/15 05:02:12;;;;;;;12.48;6.32;;;;;;;;;;5043210;28;20124;-70
2022/02/15 05:04:49;;;;;;;14.27;6.68;;;;;;;;;;5043811;28;20022;-70
2022/02/15 05:07:19;;;;;;;12.13;6.65;;;;;;;;;;5043128;28;20044;-70
2022/02/15 05:09:45;;;;;;;16.55;6.95;;;;;;;;;;5043699;28;20026;-70
2022/02/15 05:12:12;;;;;;;17.17;8.27;;;;;;;;;;5043546;28;20045;-70
2022/02/15 05:14:37;;;;;;;16.33;6.95;;;;;;;;;;5043586;28;20033;-70
2022/02/15 05:17:03;;;;;;;14.82;7.07;;;;;;;;;;5043776;28;20025;-70
2022/02/15 05:19:28;;;;;;;12.73;6.78;;;;;;;;;;5043751;28;20034;-70
2022/02/15 05:21:54;;;;;;;17.98;6.90;;;;;;;;;;5058848;28;20033;-70
2022/02/15 05:24:22;;;;;;;15.43;7.45;;;;;;;;;;5043489;28;20768;-70
2022/02/15 05:26:50;;;;;;;13.27;7.32;;;;;;;;;;5025516;28;20029;-70
2022/02/15 05:29:19;;;;;;;14.43;8.05;;;;;;;;;;5043270;28;20381;-71
2022/02/15 05:31:49;;;;;;;13.88;7.30;;;;;;;;;;5046946;28;20064;-71
2022/02/15 05:34:15;;;;;;;15.73;7.88;;;;;;;;;;5047131;28;20557;-70
2022/02/15 05:36:41;;;;;;;16.38;7.90;;;;;;;;;;5047037;28;20040;-70
2022/02/15 05:39:07;;;;;;;18.65;8.25;;;;;;;;;;5047300;28;20258;-71
2022/02/15 05:41:35;;;;;;;12.77;7.47;;;;;;;;;;5061997;28;20043;-70
2022/02/15 05:44:01;;;;;;;13.82;7.70;;;;;;;;;;5047255;28;20041;-70
2022/02/15 05:46:26;;;;;;;16.02;8.00;;;;;;;;;;5029113;28;20033;-70
2022/02/15 05:48:52;;;;;;;16.00;7.85;;;;;;;;;;5047114;28;20036;-70
2022/02/15 05:51:17;;;;;;;15.77;7.90;;;;;;;;;;5047004;28;20052;-71
2022/02/15 05:53:42;;;;;;;13.90;7.53;;;;;;;;;;5029118;28;20171;-70
2022/02/15 05:56:08;;;;;;;13.15;7.35;;;;;;;;;;5047272;28;20025;-71
2022/02/15 05:58:34;;;;;;;19.30;8.30;;;;;;;;;;5047355;28;20029;-70
2022/02/15 06:01:03;;;;;;;18.05;8.07;;;;;;;;;;5029146;28;20060;-70
2022/02/15 06:06:12;;;;;;;13.45;7.93;;;;;;;;;;5046521;28;20075;-71
2022/02/15 06:08:41;;;;;;;15.18;7.78;;;;;;;;;;5046917;28;20038;-70
2022/02/15 06:11:14;;;;;;;19.95;8.35;;;;;;;;;;5028272;28;20041;-71
2022/02/15 06:13:39;;;;;;;17.45;8.13;;;;;;;;;;5045631;28;20048;-70
2022/02/15 06:16:07;;;;;;;16.13;8.68;;;;;;;;;;5046028;28;20029;-71
2022/02/15 06:18:33;;;;;;;13.25;6.78;;;;;;;;;;5046396;28;20049;-71
2022/02/15 06:21:01;;;;;;;14.52;7.60;;;;;;;;;;5046137;28;20040;-73
2022/02/15 06:23:33;;;;;;;17.95;7.50;;;;;;;;;;5046306;28;20026;-70
2022/02/15 06:26:04;;;;;;;16.98;7.40;;;;;;;;;;5061559;28;20096;-73
2022/02/15 06:28:33;;;;;;;17.00;7.57;;;;;;;;;;5046013;28;20037;-71
2022/02/15 06:31:01;;;;;;;14.85;7.78;;;;;;;;;;5045841;28;20065;-71
2022/02/15 06:33:29;;;;;;;15.15;8.40;;;;;;;;;;5027965;28;20025;-70
2022/02/15 06:35:54;;;;;;;16.00;8.48;;;;;;;;;;5045665;28;20044;-70
2022/02/15 06:38:23;;;;;;;14.18;8.48;;;;;;;;;;5045794;28;20424;-70
2022/02/15 06:40:51;;;;;;;15.70;9.02;;;;;;;;;;5045340;28;20029;-71
2022/02/15 06:43:20;;;;;;;16.50;8.13;;;;;;;;;;5046062;28;20021;-71
2022/02/15 06:45:45;;;;;;;14.43;7.47;;;;;;;;;;5045450;28;20030;-71
2022/02/15 06:48:11;;;;;;;14.75;8.82;;;;;;;;;;5027713;28;20033;-71
2022/02/15 06:50:38;;;;;;;16.05;7.78;;;;;;;;;;5045516;28;20033;-70
2022/02/15 06:53:03;;;;;;;16.92;8.40;;;;;;;;;;5046109;28;20026;-71
2022/02/15 06:55:29;;;;;;;16.48;8.77;;;;;;;;;;5027390;28;20448;-70
2022/02/15 06:58:00;;;;;;;13.13;7.68;;;;;;;;;;5060969;28;20033;-71
2022/02/15 07:00:25;;;;;;;15.30;7.57;;;;;;;;;;5060773;28;20032;-70
2022/02/15 07:02:51;;;;;;;12.68;7.55;;;;;;;;;;5045639;28;20030;-70
2022/02/15 07:05:19;;;;;;;16.95;9.23;;;;;;;;;;5045358;28;20033;-70
2022/02/15 07:07:45;;;;;;;15.38;8.68;;;;;;;;;;5045196;28;20091;-71
2022/02/15 07:10:12;;;;;;;18.92;8.35;;;;;;;;;;5045366;28;20026;-71
2022/02/15 07:12:47;;;;;;;16.65;8.52;;;;;;;;;;5045392;28;20037;-71
2022/02/15 07:15:13;;;;;;;20.55;8.65;;;;;;;;;;5027437;28;20036;-71
2022/02/15 07:17:40;;;;;;;19.50;8.15;;;;;;;;;;5044981;28;20085;-71
2022/02/15 07:20:07;;;;;;;18.45;8.57;;;;;;;;;;5045098;28;20115;-71
2022/02/15 07:22:33;;;;;;;14.45;8.00;;;;;;;;;;5027346;28;20033;-71
2022/02/15 07:24:59;;;;;;;16.35;8.43;;;;;;;;;;5044936;28;20034;-71
2022/02/15 07:27:29;;;;;;;17.58;8.05;;;;;;;;;;5045060;28;20041;-71
2022/02/15 07:29:55;;;;;;;16.38;8.23;;;;;;;;;;5044804;28;20030;-71
2022/02/15 07:32:24;;;;;;;12.65;8.30;;;;;;;;;;5027173;28;20048;-70
2022/02/15 07:34:54;;;;;;;16.30;7.88;;;;;;;;;;5044610;28;20033;-71
2022/02/15 07:37:22;;;;;;;15.20;7.50;;;;;;;;;;5045070;28;20034;-71
2022/02/15 07:39:50;;;;;;;11.85;6.53;;;;;;;;;;5044588;28;20080;-71
2022/02/15 07:42:16;;;;;;;14.23;7.85;;;;;;;;;;5044594;28;20033;-71
2022/02/15 07:44:47;;;;;;;15.77;7.88;;;;;;;;;;5044287;28;20071;-71
2022/02/15 07:47:12;;;;;;;13.55;6.95;;;;;;;;;;5044840;28;20033;-71
2022/02/15 07:49:38;;;;;;;12.05;7.28;;;;;;;;;;5044318;28;20163;-70
2022/02/15 07:52:05;;;;;;;10.10;6.18;;;;;;;;;;5044203;28;20063;-71
2022/02/15 07:54:33;;;;;;;16.02;7.35;;;;;;;;;;5043286;28;20107;-71
2022/02/15 07:56:58;;;;;;;19.33;6.55;;;;;;;;;;5044425;28;20033;-71
2022/02/15 07:59:24;;;;;;;15.88;8.27;;;;;;;;;;5044505;28;20033;-71
2022/02/15 08:01:49;;;;;;;14.55;6.30;;;;;;;;;;5044595;28;20079;-71
2022/02/15 08:04:19;;;;;;;12.13;6.05;;;;;;;;;;5044423;28;20033;-70
2022/02/15 08:06:45;;;;;;;18.48;6.70;;;;;;;;;;5043666;28;20040;-71
2022/02/15 08:09:14;;;;;;;8.23;5.03;;;;;;;;;;5044246;28;20018;-71
2022/02/15 08:11:44;;;;;;;16.40;6.75;;;;;;;;;;5044128;28;20040;-71
2022/02/15 08:14:13;;;;;;;15.68;7.72;;;;;;;;;;5043984;28;20040;-71
2022/02/15 08:16:38;;;;;;;10.98;6.30;;;;;;;;;;5059393;28;20037;-71
2022/02/15 08:19:09;;;;;;;16.65;6.32;;;;;;;;;;5043858;28;20048;-71
2022/02/15 08:21:38;;;;;;;10.57;5.32;;;;;;;;;;5044108;28;20065;-70
2022/02/15 08:24:03;;;;;;;15.70;6.50;;;;;;;;;;5043623;28;20484;-71
2022/02/15 08:26:32;;;;;;;11.10;6.30;;;;;;;;;;5044136;28;20025;-71
2022/02/15 08:28:57;;;;;;;14.82;6.40;;;;;;;;;;5043674;28;20033;-71
2022/02/15 08:31:23;;;;;;;16.80;6.82;;;;;;;;;;5043917;28;20025;-71
2022/02/15 08:33:48;;;;;;;13.80;6.88;;;;;;;;;;5043878;28;20037;-71
2022/02/15 08:36:16;;;;;;;11.77;6.68;;;;;;;;;;5043775;28;20036;-71
2022/02/15 08:38:42;;;;;;;13.77;6.70;;;;;;;;;;5043210;28;20113;-72
2022/02/15 08:41:07;;;;;;;13.50;6.43;;;;;;;;;;5043700;28;20029;-71
2022/02/15 08:43:33;;;;;;;9.57;5.60;;;;;;;;;;5043617;28;20033;-71
2022/02/15 08:45:59;;;;;;;10.60;6.57;;;;;;;;;;5043637;28;20033;-71
2022/02/15 08:48:26;;;;;;;13.65;6.95;;;;;;;;;;5043443;28;20488;-71
2022/02/15 08:50:51;;;;;;;11.27;5.38;;;;;;;;;;5042546;28;20032;-71
2022/02/15 08:53:19;;;;;;;11.82;5.60;;;;;;;;;;5025795;28;20049;-72
2022/02/15 08:55:45;;;;;;;10.60;5.72;;;;;;;;;;5042956;28;20033;-71
2022/02/15 08:58:13;;;;;;;12.50;6.72;;;;;;;;;;5025177;28;20059;-71
2022/02/15 09:00:39;;;;;;;9.00;3.80;;;;;;;;;;5043020;28;20042;-71
2022/02/15 09:03:04;;;;;;;12.52;5.70;;;;;;;;;;5043142;28;20052;-71
2022/02/15 09:05:29;;;;;;;12.20;6.72;;;;;;;;;;5042870;28;20029;-71
2022/02/15 09:07:57;;;;;;;6.45;3.58;;;;;;;;;;5058583;28;20030;-71
2022/02/15 09:10:23;;;;;;;8.95;5.03;;;;;;;;;;5042139;28;20349;-71
2022/02/15 09:12:48;;;;;;;8.98;4.57;;;;;;;;;;5043425;28;20033;-71
2022/02/15 09:15:14;;;;;;;12.35;6.05;;;;;;;;;;5042185;28;20032;-71
2022/02/15 09:17:42;;;;;;;11.65;4.03;;;;;;;;;;5042797;28;20040;-71
2022/02/15 09:20:12;;;;;;;12.95;6.82;;;;;;;;;;5041779;28;20053;-71
2022/02/15 09:22:43;;;;;;;6.15;3.30;;;;;;;;;;5042379;28;20037;-71
2022/02/15 09:25:10;;;;;;;8.05;3.85;;;;;;;;;;5041562;28;20045;-71
2022/02/15 09:27:35;;;;;;;14.00;6.97;;;;;;;;;;5042881;28;20606;-71
2022/02/15 09:30:01;;;;;;;11.02;6.00;;;;;;;;;;5058486;28;20025;-71
2022/02/15 09:32:28;;;;;;;11.07;5.80;;;;;;;;;;5043035;28;20098;-71
2022/02/15 09:34:54;;;;;;;8.13;4.85;;;;;;;;;;5043319;28;20033;-71
2022/02/15 09:37:22;;;;;;;8.48;5.57;;;;;;;;;;5043257;28;20053;-71
2022/02/15 09:39:48;;;;;;;7.78;4.45;;;;;;;;;;5042827;28;20056;-71
2022/02/15 09:42:18;;;;;;;13.93;6.18;;;;;;;;;;5042797;28;20037;-71
2022/02/15 09:44:46;;;;;;;10.00;5.90;;;;;;;;;;5023718;28;20037;-71
2022/02/15 09:47:19;;;;;;;10.40;5.07;;;;;;;;;;5042190;28;20091;-71
2022/02/15 09:49:49;;;;;;;12.40;5.72;;;;;;;;;;5041907;28;20030;-71
2022/02/15 09:52:15;;;;;;;11.65;5.07;;;;;;;;;;5041796;28;20061;-71
2022/02/15 09:54:42;;;;;;;5.20;2.78;;;;;;;;;;5041818;28;20060;-71
2022/02/15 09:57:09;;;;;;;9.85;4.85;;;;;;;;;;5041567;28;20057;-71
2022/02/15 09:59:35;;;;;;;13.35;6.63;;;;;;;;;;5041302;28;20033;-71
2022/02/15 10:02:09;;;;;;;14.68;5.38;;;;;;;;;;5024538;28;20377;-71
2022/02/15 10:04:36;;;;;;;11.63;5.65;;;;;;;;;;5042376;28;20034;-71
2022/02/15 10:07:04;;;;;;;10.73;5.57;;;;;;;;;;5042745;28;20030;-71
2022/02/15 10:09:29;;;;;;;7.13;3.58;;;;;;;;;;5042612;28;20053;-71
2022/02/15 10:12:07;;;;;;;11.13;5.47;;;;;;;;;;5043105;28;20037;-71
2022/02/15 10:14:38;;;;;;;8.32;3.88;;;;;;;;;;5042200;28;20040;-71
2022/02/15 10:17:09;;;;;;;7.95;4.07;;;;;;;;;;5026971;28;20041;-71
2022/02/15 10:19:37;;;;;;;13.23;6.20;;;;;;;;;;5046082;28;20039;-71
2022/02/15 10:22:04;;;;;;;12.43;5.25;;;;;;;;;;5028577;28;20054;-71
2022/02/15 10:24:35;;;;;;;11.05;5.95;;;;;;;;;;5028157;28;20117;-71
2022/02/15 10:27:13;;;;;;;11.38;6.30;;;;;;;;;;5046237;28;20040;-71
2022/02/15 10:29:40;;;;;;;11.32;5.13;;;;;;;;;;5045984;28;20057;-71
2022/02/15 10:32:08;;;;;;;8.15;4.63;;;;;;;;;;5045677;28;20033;-72
2022/02/15 10:34:47;;;;;;;11.57;4.10;;;;;;;;;;5045956;28;20026;-71
2022/02/15 10:37:16;;;;;;;8.13;4.15;;;;;;;;;;5045330;28;20036;-71
2022/02/15 10:39:45;;;;;;;5.95;3.58;;;;;;;;;;5045263;28;20053;-71
2022/02/15 10:42:13;;;;;;;5.63;2.65;;;;;;;;;;5045530;28;20060;-71
2022/02/15 10:44:57;;;;;;;9.43;4.75;;;;;;;;;;5027963;28;20088;-71
2022/02/15 10:47:24;;;;;;;5.95;3.20;;;;;;;;;;5045648;28;20121;-71
2022/02/15 10:49:50;;;;;;;10.23;3.70;;;;;;;;;;5045663;28;20053;-71
2022/02/15 10:52:16;;;;;;;7.53;3.30;;;;;;;;;;5045564;28;20029;-71
2022/02/15 10:54:44;;;;;;;7.78;3.08;;;;;;;;;;5045559;28;20029;-71
2022/02/15 10:57:13;;;;;;;9.52;3.85;;;;;;;;;;5045088;28;20041;-71
2022/02/15 10:59:41;;;;;;;11.80;4.25;;;;;;;;;;5044491;28;20037;-71
2022/02/15 11:02:15;;;;;;;7.00;3.50;;;;;;;;;;5027706;28;20041;-71
2022/02/15 11:04:44;;;;;;;7.60;4.20;;;;;;;;;;5045225;28;20026;-71
2022/02/15 11:07:11;;;;;;;9.23;3.58;;;;;;;;;;5045643;28;20029;-71
2022/02/15 11:10:00;;;;;;;6.78;3.28;;;;;;;;;;5045230;28;20033;-71
2022/02/15 11:12:46;;;;;;;10.45;4.43;;;;;;;;;;5045318;28;20049;-71
2022/02/15 11:15:12;;;;;;;7.32;2.70;;;;;;;;;;5045043;28;20063;-72
2022/02/15 11:17:54;;;;;;;6.60;3.40;;;;;;;;;;5027547;28;20034;-71
2022/02/15 11:20:22;;;;;;;10.52;4.03;;;;;;;;;;5045458;28;20033;-71
2022/02/15 11:22:52;;;;;;;8.00;3.55;;;;;;;;;;5045076;28;20058;-71
2022/02/15 11:25:35;;;;;;;8.73;4.70;;;;;;;;;;5045162;28;20033;-71
2022/02/15 11:28:20;;;;;;;7.88;3.55;;;;;;;;;;5045156;28;20025;-71
2022/02/15 11:31:02;;;;;;;5.47;3.17;;;;;;;;;;5044929;28;20033;-71
2022/02/15 11:33:43;;;;;;;10.93;4.03;;;;;;;;;;5026949;28;20025;-70
2022/02/15 11:36:13;;;;;;;8.90;4.25;;;;;;;;;;5044894;28;20322;-71
2022/02/15 11:38:49;;;;;;;8.13;4.10;;;;;;;;;;5026468;28;20045;-71
2022/02/15 11:41:20;;;;;;;9.38;4.65;;;;;;;;;;5044964;28;20084;-71
2022/02/15 11:44:05;;;;;;;5.32;2.95;;;;;;;;;;5027221;28;20124;-71
2022/02/15 11:46:33;;;;;;;10.13;3.17;;;;;;;;;;5045113;28;20121;-71
2022/02/15 11:49:15;;;;;;;9.73;4.60;;;;;;;;;;5044806;28;20026;-71
2022/02/15 11:51:46;;;;;;;6.35;3.33;;;;;;;;;;5044879;28;20029;-71
2022/02/15 11:54:26;;;;;;;5.93;2.58;;;;;;;;;;5044519;28;20061;-71
2022/02/15 11:56:58;;;;;;;8.13;3.08;;;;;;;;;;5044654;28;20029;-71
2022/02/15 11:59:25;;;;;;;6.70;3.47;;;;;;;;;;5026442;28;20029;-71
2022/02/15 12:02:23;;;;;;;6.55;3.63;;;;;;;;;;5026740;28;20036;-70
2022/02/15 12:05:09;;;;;;;12.52;5.32;;;;;;;;;;5043294;28;20045;-71
2022/02/15 12:07:39;;;;;;;7.70;4.25;;;;;;;;;;5026364;28;20030;-71
2022/02/15 12:10:08;;;;;;;5.78;2.85;;;;;;;;;;5044392;28;20056;-70
2022/02/15 12:12:41;;;;;;;7.68;3.78;;;;;;;;;;5044285;28;20112;-71
2022/02/15 12:15:10;;;;;;;3.47;2.03;;;;;;;;;;5043949;28;20037;-71
2022/02/15 12:17:44;;;;;;;7.28;3.47;;;;;;;;;;5044036;28;20037;-71
2022/02/15 12:20:16;;;;;;;12.85;3.80;;;;;;;;;;5043920;28;20049;-70
2022/02/15 12:22:52;;;;;;;8.02;3.67;;;;;;;;;;5043988;28;20037;-71
2022/02/15 12:25:29;;;;;;;6.15;2.42;;;;;;;;;;5043813;28;20025;-71
2022/02/15 12:27:57;;;;;;;7.03;2.90;;;;;;;;;;5043736;28;20491;-70
2022/02/15 12:30:34;;;;;;;4.22;2.53;;;;;;;;;;5043820;28;20044;-71
2022/02/15 12:33:02;;;;;;;9.98;3.88;;;;;;;;;;5043658;28;20031;-71
2022/02/15 12:35:28;;;;;;;5.65;2.53;;;;;;;;;;5043445;28;20059;-71
2022/02/15 12:38:01;;;;;;;5.35;2.55;;;;;;;;;;5043642;28;20517;-71
2022/02/15 12:40:34;;;;;;;6.78;3.13;;;;;;;;;;5043025;28;20045;-71
2022/02/15 12:43:06;;;;;;;10.83;3.63;;;;;;;;;;5043829;28;20038;-70
2022/02/15 12:45:31;;;;;;;8.18;3.33;;;;;;;;;;5043477;28;20278;-71
2022/02/15 12:48:01;;;;;;;6.68;2.78;;;;;;;;;;5044099;28;20025;-72
2022/02/15 12:50:39;;;;;;;6.70;2.85;;;;;;;;;;5043343;28;20464;-71
2022/02/15 12:53:11;;;;;;;8.02;2.65;;;;;;;;;;5025879;28;20477;-72
2022/02/15 12:55:48;;;;;;;11.25;4.68;;;;;;;;;;5025816;28;20029;-71
2022/02/15 12:58:18;;;;;;;5.80;2.83;;;;;;;;;;5043811;28;20048;-71
2022/02/15 13:00:48;;;;;;;4.45;2.97;;;;;;;;;;5043670;28;20342;-71
2022/02/15 13:03:23;;;;;;;4.68;3.17;;;;;;;;;;5025881;28;20069;-71
2022/02/15 13:05:54;;;;;;;7.70;3.28;;;;;;;;;;5042965;28;20555;-71
2022/02/15 13:08:26;;;;;;;5.78;2.67;;;;;;;;;;5025452;28;20033;-71
2022/02/15 13:11:00;;;;;;;9.13;3.55;;;;;;;;;;5043285;28;20084;-71
2022/02/15 13:13:31;;;;;;;6.93;2.63;;;;;;;;;;5043096;28;20044;-71
2022/02/15 13:16:01;;;;;;;8.35;3.40;;;;;;;;;;5043203;28;20466;-71
2022/02/15 13:18:27;;;;;;;7.78;3.08;;;;;;;;;;5042637;28;20026;-71
2022/02/15 13:20:53;;;;;;;6.40;3.05;;;;;;;;;;5025200;28;20025;-71
2022/02/15 13:23:21;;;;;;;4.55;2.10;;;;;;;;;;5043069;28;20038;-71
2022/02/15 13:25:53;;;;;;;5.38;2.20;;;;;;;;;;5042984;28;20032;-71
2022/02/15 13:28:21;;;;;;;3.25;1.73;;;;;;;;;;5043160;28;20033;-72
2022/02/15 13:31:04;;;;;;;5.53;2.80;;;;;;;;;;5025005;28;20102;-71
2022/02/15 13:33:40;;;;;;;3.28;2.05;;;;;;;;;;5043003;28;20383;-71
2022/02/15 13:36:09;;;;;;;5.93;3.00;;;;;;;;;;5043198;28;20041;-71
2022/02/15 13:38:45;;;;;;;5.10;2.00;;;;;;;;;;5042772;28;20588;-71
2022/02/15 13:41:14;;;;;;;6.50;2.42;;;;;;;;;;5042949;28;20108;-71
2022/02/15 13:43:52;;;;;;;7.85;2.85;;;;;;;;;;5042977;28;20068;-71
2022/02/15 13:46:21;;;;;;;5.22;2.67;;;;;;;;;;5043218;28;20033;-71
2022/02/15 13:48:49;;;;;;;7.95;2.53;;;;;;;;;;5042964;28;20029;-70
2022/02/15 13:51:14;;;;;;;9.20;2.80;;;;;;;;;;5043698;28;20036;-71
2022/02/15 13:53:47;;;;;;;3.80;1.35;;;;;;;;;;5029123;28;20029;-71
2022/02/15 13:56:17;;;;;;;11.65;3.35;;;;;;;;;;5029120;28;20069;-71
2022/02/15 13:58:45;;;;;;;3.45;1.77;;;;;;;;;;5028802;28;20125;-71
2022/02/15 14:01:14;;;;;;;6.82;2.22;;;;;;;;;;5046904;28;20029;-71
2022/02/15 14:03:45;;;;;;;4.18;1.45;;;;;;;;;;5046702;28;20021;-71
2022/02/15 14:06:11;;;;;;;6.15;1.83;;;;;;;;;;5046581;28;20030;-71
2022/02/15 14:08:39;;;;;;;5.03;2.05;;;;;;;;;;5046233;28;20026;-71
2022/02/15 14:11:05;;;;;;;7.80;2.25;;;;;;;;;;5046434;28;20445;-70
2022/02/15 14:13:33;;;;;;;12.45;1.23;;;;;;;;;;5046454;28;20029;-71
2022/02/15 14:15:59;;;;;;;6.13;1.52;;;;;;;;;;5046813;28;20037;-71
2022/02/15 14:18:24;;;;;;;7.97;2.28;;;;;;;;;;5046087;28;20137;-70
2022/02/15 14:20:50;;;;;;;10.55;2.10;;;;;;;;;;5045419;28;20033;-71
2022/02/15 14:23:18;;;;;;;8.05;2.25;;;;;;;;;;5046239;28;20025;-70
2022/02/15 14:25:46;;;;;;;4.82;1.50;;;;;;;;;;5045991;28;20030;-71
2022/02/15 14:28:14;;;;;;;5.93;1.45;;;;;;;;;;5045731;28;20037;-71
2022/02/15 14:30:44;;;;;;;6.70;1.42;;;;;;;;;;5028045;28;20029;-71
2022/02/15 14:33:09;;;;;;;6.20;1.83;;;;;;;;;;5028151;28;20060;-71
2022/02/15 14:35:36;;;;;;;4.53;1.52;;;;;;;;;;5045801;28;20029;-71
2022/02/15 14:38:06;;;;;;;7.05;2.05;;;;;;;;;;5027896;28;20036;-71
2022/02/15 14:40:35;;;;;;;1.55;0.90;;;;;;;;;;5046022;28;20304;-71
2022/02/15 14:43:06;;;;;;;8.88;1.65;;;;;;;;;;5046040;28;20037;-70
2022/02/15 14:45:31;;;;;;;7.70;1.77;;;;;;;;;;5045064;28;20034;-72
2022/02/15 14:48:00;;;;;;;6.30;1.33;;;;;;;;;;5045821;28;20059;-71